createdAt,value
2023-04-12T00:00:19.907Z,15.10
2023-04-12T00:02:49.938Z,99.90
2023-04-12T00:05:18.465Z,99.90
2023-04-12T00:07:47.107Z,99.90
2023-04-12T00:10:17.567Z,1.00
2023-04-12T00:12:46.406Z,1.00
2023-04-12T00:15:14.639Z,99.90
2023-04-12T00:17:43.060Z,28.00
2023-04-12T00:20:12.946Z,1.00
2023-04-12T00:22:41.486Z,1.00
2023-04-12T00:25:10.445Z,99.90
2023-04-12T00:27:40.764Z,1.00
2023-04-12T00:30:09.776Z,99.90
2023-04-12T00:32:38.030Z,99.90
2023-04-12T00:35:06.948Z,1.00
2023-04-12T00:37:36.331Z,1.00
2023-04-12T00:40:07.002Z,1.00
2023-04-12T00:42:36.065Z,1.00
2023-04-12T00:45:06.820Z,1.00
2023-04-12T00:47:37.113Z,1.00
2023-04-12T00:50:07.028Z,1.00
2023-04-12T00:52:36.302Z,1.00
2023-04-12T00:55:06.232Z,1.00
2023-04-12T00:57:36.657Z,1.00
2023-04-12T01:00:08.880Z,1.00
2023-04-12T01:02:39.548Z,1.00
2023-04-12T01:05:14.709Z,1.00
2023-04-12T01:07:54.371Z,1.00
2023-04-12T01:10:32.401Z,1.00
2023-04-12T01:13:08.425Z,1.00
2023-04-12T01:15:42.503Z,1.00
2023-04-12T01:18:15.509Z,14.60
2023-04-12T01:20:49.784Z,19.50
2023-04-12T01:23:45.182Z,39.40
2023-04-12T01:26:34.450Z,41.80
2023-04-12T01:29:11.256Z,65.80
2023-04-12T01:31:42.137Z,68.70
2023-04-12T01:34:13.121Z,83.30
2023-04-12T01:36:44.981Z,89.40
2023-04-12T01:39:13.218Z,95.30
2023-04-12T01:41:45.430Z,99.90
2023-04-12T01:44:16.698Z,99.90
2023-04-12T01:46:46.842Z,99.90
2023-04-12T01:49:15.610Z,99.90
2023-04-12T01:51:53.823Z,99.90
2023-04-12T01:54:28.606Z,99.90
2023-04-12T01:56:59.888Z,99.90
2023-04-12T01:59:33.270Z,99.90
2023-04-12T02:02:02.283Z,99.90
2023-04-12T02:04:31.394Z,99.90
2023-04-12T02:06:59.932Z,99.90
2023-04-12T02:09:28.271Z,99.90
2023-04-12T02:11:56.678Z,99.90
2023-04-12T02:14:24.953Z,99.90
2023-04-12T02:16:55.832Z,99.90
2023-04-12T02:19:24.738Z,99.90
2023-04-12T02:21:54.725Z,99.90
2023-04-12T02:24:23.448Z,99.90
2023-04-12T02:26:52.787Z,82.90
2023-04-12T02:29:21.869Z,75.00
2023-04-12T02:31:50.162Z,90.20
2023-04-12T02:34:21.536Z,73.20
2023-04-12T02:36:56.540Z,51.80
2023-04-12T02:39:25.096Z,73.10
2023-04-12T02:41:54.019Z,69.20
2023-04-12T02:44:22.208Z,69.30
2023-04-12T02:47:07.512Z,46.00
2023-04-12T02:49:38.748Z,42.90
2023-04-12T02:52:07.700Z,4.00
2023-04-12T02:54:43.556Z,27.10
2023-04-12T02:57:17.200Z,6.90
2023-04-12T02:59:48.734Z,1.00
2023-04-12T03:02:22.395Z,1.00
2023-04-12T03:04:55.063Z,1.00
2023-04-12T03:07:31.850Z,9.70
2023-04-12T03:10:00.365Z,12.40
2023-04-12T03:19:43.755Z,3.20
2023-04-12T03:22:14.354Z,3.00
2023-04-12T03:24:47.293Z,1.00
2023-04-12T03:27:18.981Z,1.00
2023-04-12T03:29:47.310Z,1.00
2023-04-12T03:32:15.797Z,1.00
2023-04-12T03:34:46.656Z,1.00
2023-04-12T03:37:19.648Z,1.00
2023-04-12T03:39:48.875Z,1.00
2023-04-12T03:42:32.372Z,1.00
2023-04-12T03:45:12.344Z,1.00
2023-04-12T03:47:44.158Z,1.00
2023-04-12T03:50:14.775Z,1.00
2023-04-12T03:52:50.351Z,1.00
2023-04-12T03:55:19.148Z,1.00
2023-04-12T03:57:53.009Z,1.00
2023-04-12T04:00:23.792Z,1.00
2023-04-12T04:03:06.873Z,1.00
2023-04-12T04:05:44.910Z,1.00
2023-04-12T04:08:16.094Z,1.00
2023-04-12T04:10:52.884Z,1.00
2023-04-12T04:13:24.900Z,1.00
2023-04-12T04:16:01.501Z,1.00
2023-04-12T04:18:30.373Z,1.00
2023-04-12T04:20:59.910Z,1.00
2023-04-12T04:23:38.497Z,1.00
2023-04-12T04:26:10.586Z,1.00
2023-04-12T04:28:46.347Z,1.00
2023-04-12T04:31:18.619Z,1.00
2023-04-12T04:33:50.923Z,1.00
2023-04-12T04:36:22.357Z,1.00
2023-04-12T04:38:57.236Z,1.00
2023-04-12T04:41:41.458Z,1.00
2023-04-12T04:44:27.114Z,1.00
2023-04-12T04:47:00.876Z,1.00
2023-04-12T04:49:29.454Z,1.00
2023-04-12T04:52:04.614Z,1.00
2023-04-12T04:54:34.474Z,1.00
2023-04-12T04:57:03.071Z,1.00
2023-04-12T04:59:31.466Z,1.00
2023-04-12T05:02:13.123Z,1.00
2023-04-12T05:04:41.528Z,1.00
2023-04-12T05:07:13.259Z,1.00
2023-04-12T05:09:46.038Z,1.00
2023-04-12T05:12:15.295Z,99.90
2023-04-12T05:14:51.452Z,99.90
2023-04-12T05:17:20.441Z,99.90
2023-04-12T05:19:48.937Z,99.90
2023-04-12T05:22:20.485Z,1.00
2023-04-12T05:24:50.324Z,99.90
2023-04-12T05:27:19.047Z,1.00
2023-04-12T05:29:49.570Z,1.00
2023-04-12T05:32:20.403Z,1.00
2023-04-12T05:34:48.971Z,1.00
2023-04-12T05:37:17.682Z,1.00
2023-04-12T05:39:45.982Z,90.00
2023-04-12T05:42:17.960Z,1.00
2023-04-12T05:44:49.919Z,99.90
2023-04-12T05:47:19.037Z,1.00
2023-04-12T05:49:48.102Z,1.00
2023-04-12T05:52:16.644Z,99.90
2023-04-12T05:54:45.070Z,1.00
2023-04-12T05:57:19.054Z,99.90
2023-04-12T05:59:49.822Z,1.00
2023-04-12T06:02:19.650Z,1.00
2023-04-12T06:04:50.651Z,99.90
2023-04-12T06:07:21.263Z,99.90
2023-04-12T06:09:49.983Z,99.90
2023-04-12T06:12:20.434Z,1.00
2023-04-12T06:14:49.263Z,99.90
2023-04-12T06:17:18.188Z,99.90
2023-04-12T06:19:46.417Z,1.00
2023-04-12T06:22:14.975Z,99.90
2023-04-12T06:24:44.184Z,99.90
2023-04-12T06:27:13.804Z,1.00
2023-04-12T06:29:43.588Z,1.00
2023-04-12T06:32:12.090Z,99.90
2023-04-12T06:34:40.531Z,99.90
2023-04-12T06:37:14.035Z,1.00
2023-04-12T06:39:42.327Z,99.90
2023-04-12T06:42:12.554Z,1.00
2023-04-12T06:44:43.789Z,99.90
2023-04-12T06:47:12.168Z,1.00
2023-04-12T06:49:42.481Z,99.90
2023-04-12T06:52:10.898Z,99.90
2023-04-12T06:54:39.887Z,1.00
2023-04-12T06:57:11.485Z,99.90
2023-04-12T06:59:39.757Z,99.90
2023-04-12T07:02:09.433Z,99.90
2023-04-12T07:04:38.016Z,99.90
2023-04-12T07:07:06.542Z,99.90
2023-04-12T07:09:36.652Z,1.00
2023-04-12T07:12:05.252Z,99.90
2023-04-12T07:14:33.472Z,1.00
2023-04-12T07:17:02.095Z,1.00
2023-04-12T07:19:31.833Z,1.00
2023-04-12T07:22:01.049Z,1.00
2023-04-12T07:24:29.404Z,99.90
2023-04-12T07:26:57.723Z,1.00
2023-04-12T07:29:26.082Z,1.00
2023-04-12T07:31:54.334Z,1.00
2023-04-12T07:34:22.898Z,1.00
2023-04-12T07:36:52.534Z,1.00
2023-04-12T07:39:20.792Z,1.00
2023-04-12T07:41:51.903Z,1.00
2023-04-12T07:44:20.151Z,1.00
2023-04-12T07:46:48.459Z,1.00
2023-04-12T07:49:16.677Z,1.00
2023-04-12T07:51:44.938Z,99.90
2023-04-12T07:54:14.636Z,99.90
2023-04-12T07:56:43.139Z,99.90
2023-04-12T07:59:11.665Z,34.00
2023-04-12T08:01:41.235Z,1.00
2023-04-12T08:04:09.596Z,1.00
2023-04-12T08:06:38.040Z,1.00
2023-04-12T08:09:08.713Z,1.00
2023-04-12T08:11:38.544Z,1.00
2023-04-12T08:14:06.908Z,1.00
2023-04-12T08:16:35.281Z,1.00
2023-04-12T08:19:03.980Z,1.00
2023-04-12T08:21:32.289Z,1.00
2023-04-12T08:24:00.458Z,1.00
2023-04-12T08:26:29.919Z,1.00
2023-04-12T08:28:59.558Z,1.00
2023-04-12T08:31:28.033Z,1.00
2023-04-12T08:33:57.240Z,1.00
2023-04-12T08:36:25.795Z,1.00
2023-04-12T08:38:56.112Z,1.00
2023-04-12T08:41:24.622Z,1.00
2023-04-12T08:43:53.648Z,1.00
2023-04-12T08:46:23.764Z,1.00
2023-04-12T08:48:58.359Z,1.00
2023-04-12T08:51:27.502Z,1.00
2023-04-12T08:53:55.913Z,1.00
2023-04-12T08:56:25.133Z,1.00
2023-04-12T08:58:54.540Z,1.00
2023-04-12T09:01:24.289Z,1.00
2023-04-12T09:03:52.824Z,1.00
2023-04-12T09:06:21.323Z,1.00
2023-04-12T09:08:54.041Z,1.00
2023-04-12T09:11:27.151Z,1.00
2023-04-12T09:13:56.525Z,1.00
2023-04-12T09:16:40.290Z,1.00
2023-04-12T09:19:10.610Z,1.00
2023-04-12T09:21:52.608Z,1.00
2023-04-12T09:24:24.277Z,1.00
2023-04-12T09:27:04.006Z,1.00
2023-04-12T09:29:33.135Z,1.00
2023-04-12T09:32:05.820Z,1.00
2023-04-12T09:34:35.960Z,1.00
2023-04-12T09:37:13.918Z,1.00
2023-04-12T09:39:44.896Z,1.00
2023-04-12T09:42:29.767Z,1.00
2023-04-12T09:45:03.690Z,99.90
2023-04-12T09:47:43.597Z,99.90
2023-04-12T09:50:21.506Z,99.90
2023-04-12T09:52:50.100Z,99.90
2023-04-12T09:55:19.302Z,99.90
2023-04-12T09:57:47.944Z,99.90
2023-04-12T10:00:18.435Z,99.90
2023-04-12T10:02:52.451Z,99.90
2023-04-12T10:05:23.079Z,99.90
2023-04-12T10:07:52.069Z,99.90
2023-04-12T10:10:21.832Z,99.90
2023-04-12T10:12:51.252Z,99.90
2023-04-12T10:15:21.810Z,99.90
2023-04-12T10:17:58.487Z,99.90
2023-04-12T10:20:29.325Z,99.90
2023-04-12T10:22:59.714Z,99.90
2023-04-12T10:25:31.851Z,99.90
2023-04-12T10:28:15.652Z,99.90
2023-04-12T10:30:44.153Z,99.90
2023-04-12T10:33:16.926Z,99.90
2023-04-12T10:35:53.991Z,99.90
2023-04-12T10:38:25.045Z,99.90
2023-04-12T10:41:17.895Z,99.90
2023-04-12T10:43:46.931Z,99.90
2023-04-12T10:46:49.100Z,99.90
2023-04-12T10:49:19.236Z,99.90
2023-04-12T10:52:14.796Z,99.90
2023-04-12T10:54:43.320Z,99.90
2023-04-12T10:57:45.177Z,99.90
2023-04-12T11:00:14.520Z,99.90
2023-04-12T11:03:07.627Z,99.90
2023-04-12T11:06:12.549Z,99.90
2023-04-12T11:09:08.739Z,99.90
2023-04-12T11:11:42.873Z,99.90
2023-04-12T11:14:11.376Z,99.90
2023-04-12T11:17:15.759Z,99.90
2023-04-12T11:19:45.752Z,99.90
2023-04-12T11:22:17.464Z,99.90
2023-04-12T11:24:48.124Z,99.90
2023-04-12T11:27:17.372Z,99.90
2023-04-12T11:29:46.358Z,99.90
2023-04-12T11:32:15.518Z,99.90
2023-04-12T11:34:45.426Z,99.90
2023-04-12T11:37:15.852Z,99.90
2023-04-12T11:39:45.132Z,99.90
2023-04-12T11:42:18.692Z,99.90
2023-04-12T11:44:57.180Z,99.90
2023-04-12T11:47:27.143Z,99.90
2023-04-12T11:49:57.056Z,99.90
2023-04-12T11:52:31.229Z,99.90
2023-04-12T11:55:04.811Z,99.90
2023-04-12T11:57:35.510Z,99.90
2023-04-12T12:00:07.075Z,99.90
2023-04-12T12:02:52.288Z,99.90
2023-04-12T12:05:30.924Z,99.90
2023-04-12T12:08:05.855Z,99.90
2023-04-12T12:13:12.221Z,99.90
2023-04-12T12:15:40.984Z,99.90
2023-04-12T12:18:10.367Z,99.90
2023-04-12T12:20:43.326Z,99.90
2023-04-12T12:23:13.100Z,99.90
2023-04-12T12:25:48.839Z,99.90
2023-04-12T12:28:18.202Z,99.90
2023-04-12T12:30:46.764Z,99.90
2023-04-12T12:33:23.143Z,99.90
2023-04-12T12:35:57.910Z,99.90
2023-04-12T12:38:37.646Z,99.90
2023-04-12T12:41:17.589Z,99.90
2023-04-12T12:43:47.303Z,99.90
2023-04-12T12:46:17.706Z,99.90
2023-04-12T12:48:47.218Z,99.90
2023-04-12T12:51:18.138Z,99.90
2023-04-12T12:53:48.435Z,99.90
2023-04-12T12:56:17.427Z,99.90
2023-04-12T12:58:46.789Z,99.90
2023-04-12T13:01:15.263Z,99.90
2023-04-12T13:03:43.823Z,99.90
2023-04-12T13:06:12.421Z,99.90
2023-04-12T13:08:40.998Z,99.90
2023-04-12T13:11:11.054Z,99.90
2023-04-12T13:13:42.815Z,99.90
2023-04-12T13:16:11.957Z,99.90
2023-04-12T13:18:40.907Z,99.90
2023-04-12T13:21:09.891Z,99.90
2023-04-12T13:23:38.195Z,99.90
2023-04-12T13:26:07.232Z,99.90
2023-04-12T13:28:37.026Z,99.90
2023-04-12T13:31:05.602Z,99.90
2023-04-12T13:33:34.021Z,99.90
2023-04-12T13:36:02.409Z,99.90
2023-04-12T13:38:30.858Z,99.90
2023-04-12T13:40:59.121Z,99.90
2023-04-12T13:43:27.410Z,99.90
2023-04-12T13:45:57.060Z,99.90
2023-04-12T13:48:25.357Z,99.90
2023-04-12T13:50:55.540Z,99.90
2023-04-12T13:53:23.939Z,99.90
2023-04-12T13:55:52.172Z,99.90
2023-04-12T13:58:20.395Z,99.90
2023-04-12T14:00:48.592Z,99.90
2023-04-12T14:03:18.257Z,99.90
2023-04-12T14:05:46.493Z,99.90
2023-04-12T14:08:14.837Z,99.90
2023-04-12T14:10:42.996Z,99.90
2023-04-12T14:13:11.194Z,99.90
2023-04-12T14:15:39.514Z,99.90
2023-04-12T14:18:07.784Z,99.90
2023-04-12T14:20:37.453Z,99.90
2023-04-12T14:23:07.339Z,99.90
2023-04-12T14:25:38.434Z,99.90
2023-04-12T14:28:06.918Z,99.90
2023-04-12T14:30:35.191Z,99.90
2023-04-12T14:33:03.827Z,99.90
2023-04-12T14:35:32.120Z,99.90
2023-04-12T14:38:02.590Z,99.90
2023-04-12T14:40:31.338Z,99.90
2023-04-12T14:42:59.786Z,99.90
2023-04-12T14:45:28.298Z,99.90
2023-04-12T14:47:57.202Z,99.90
2023-04-12T14:50:25.638Z,99.90
2023-04-12T14:52:54.592Z,99.90
2023-04-12T14:55:24.347Z,99.90
2023-04-12T14:57:52.614Z,99.90
2023-04-12T15:00:22.440Z,99.90
2023-04-12T15:02:52.011Z,99.90
2023-04-12T15:05:20.697Z,99.90
2023-04-12T15:07:49.899Z,99.90
2023-04-12T15:10:18.880Z,99.90
2023-04-12T15:12:48.558Z,99.90
2023-04-12T15:15:17.003Z,99.90
2023-04-12T15:17:46.453Z,99.90
2023-04-12T15:20:17.231Z,99.90
2023-04-12T15:22:45.633Z,99.90
2023-04-12T15:25:14.137Z,99.90
2023-04-12T15:27:44.136Z,99.90
2023-04-12T15:30:15.598Z,99.90
2023-04-12T15:32:43.967Z,99.90
2023-04-12T15:37:44.482Z,99.90
2023-04-12T15:40:13.939Z,99.90
2023-04-12T15:42:44.754Z,99.90
2023-04-12T15:45:14.528Z,99.90
2023-04-12T15:47:42.911Z,99.90
2023-04-12T15:50:12.896Z,99.90
2023-04-12T15:52:43.190Z,99.90
2023-04-12T15:55:12.859Z,99.90
2023-04-12T15:57:41.190Z,99.90
2023-04-12T16:00:21.073Z,99.90
2023-04-12T16:02:56.653Z,99.90
2023-04-12T16:05:27.897Z,99.90
2023-04-12T16:07:56.687Z,99.90
2023-04-12T16:10:25.347Z,99.90
2023-04-12T16:12:54.731Z,99.90
2023-04-12T16:15:23.212Z,99.90
2023-04-12T16:17:56.746Z,99.90
2023-04-12T16:20:25.490Z,99.90
2023-04-12T16:22:55.377Z,99.90
2023-04-12T16:25:24.694Z,99.90
2023-04-12T16:27:53.344Z,99.90
2023-04-12T16:30:22.929Z,99.90
2023-04-12T16:32:53.107Z,99.90
2023-04-12T16:35:21.736Z,99.90
2023-04-12T16:37:50.043Z,99.90
2023-04-12T16:40:18.499Z,99.90
2023-04-12T16:42:47.008Z,99.90
2023-04-12T16:45:15.588Z,99.90
2023-04-12T16:47:43.913Z,99.90
2023-04-12T16:50:15.591Z,99.90
2023-04-12T16:52:44.056Z,99.90
2023-04-12T16:55:15.084Z,99.90
2023-04-12T16:57:44.821Z,99.90
2023-04-12T17:00:20.607Z,99.90
2023-04-12T17:02:50.963Z,99.90
2023-04-12T17:05:22.206Z,99.90
2023-04-12T17:07:53.569Z,99.90
2023-04-12T17:10:23.128Z,99.90
2023-04-12T17:12:53.214Z,99.90
2023-04-12T17:15:22.310Z,99.90
2023-04-12T17:17:52.552Z,99.90
2023-04-12T17:20:23.613Z,99.90
2023-04-12T17:22:53.158Z,99.90
2023-04-12T17:25:21.646Z,99.90
2023-04-12T17:27:53.016Z,99.90
2023-04-12T17:30:21.715Z,99.90
2023-04-12T17:32:51.376Z,99.90
2023-04-12T17:35:20.950Z,99.90
2023-04-12T17:37:50.769Z,99.90
2023-04-12T17:40:19.294Z,99.90
2023-04-12T17:42:48.143Z,99.90
2023-04-12T17:45:18.487Z,99.90
2023-04-12T17:47:46.946Z,99.90
2023-04-12T17:50:16.066Z,99.90
2023-04-12T17:52:44.496Z,99.90
2023-04-12T17:55:14.278Z,99.90
2023-04-12T17:57:44.452Z,99.90
2023-04-12T18:00:14.365Z,99.90
2023-04-12T18:02:45.608Z,99.90
2023-04-12T18:05:14.340Z,99.90
2023-04-12T18:07:42.795Z,99.90
2023-04-12T18:10:15.724Z,99.90
2023-04-12T18:12:45.230Z,99.90
2023-04-12T18:15:13.638Z,1.00
2023-04-12T18:17:42.151Z,1.00
2023-04-12T18:20:12.271Z,1.00
2023-04-12T18:22:41.150Z,1.00
2023-04-12T18:25:11.653Z,1.00
2023-04-12T18:27:41.706Z,1.00
2023-04-12T18:30:10.510Z,1.00
2023-04-12T18:32:38.999Z,1.00
2023-04-12T18:35:08.380Z,1.00
2023-04-12T18:37:37.305Z,1.00
2023-04-12T18:40:08.096Z,1.00
2023-04-12T18:42:36.409Z,1.00
2023-04-12T18:45:06.844Z,1.00
2023-04-12T18:47:35.123Z,1.00
2023-04-12T18:50:03.452Z,1.00
2023-04-12T18:52:31.833Z,1.00
2023-04-12T18:55:00.340Z,1.00
2023-04-12T18:57:29.245Z,1.00
2023-04-12T18:59:57.795Z,1.00
2023-04-12T19:02:28.340Z,1.00
2023-04-12T19:04:57.732Z,1.00
2023-04-12T19:07:26.244Z,1.00
2023-04-12T19:09:54.572Z,99.90
2023-04-12T19:12:22.849Z,99.90
2023-04-12T19:14:51.120Z,99.90
2023-04-12T19:17:24.733Z,99.90
2023-04-12T19:19:54.861Z,99.90
2023-04-12T19:22:26.439Z,11.40
2023-04-12T19:24:54.743Z,4.30
2023-04-12T19:27:23.743Z,20.50
2023-04-12T19:29:52.729Z,18.10
2023-04-12T19:32:22.048Z,47.00
2023-04-12T19:34:51.322Z,65.40
2023-04-12T19:37:21.604Z,54.50
2023-04-12T19:39:50.056Z,78.90
2023-04-12T19:42:18.454Z,76.80
2023-04-12T19:44:46.930Z,99.90
2023-04-12T19:47:15.238Z,99.90
2023-04-12T19:49:43.846Z,99.90
2023-04-12T19:52:15.379Z,99.90
2023-04-12T19:54:45.007Z,1.00
2023-04-12T19:57:13.262Z,1.00
2023-04-12T19:59:41.467Z,1.00
2023-04-12T20:02:09.823Z,1.00
2023-04-12T20:04:38.323Z,1.00
2023-04-12T20:07:06.666Z,99.90
2023-04-12T20:09:36.068Z,99.90
2023-04-12T20:12:06.712Z,99.90
2023-04-12T20:14:36.973Z,1.00
2023-04-12T20:17:06.391Z,1.00
2023-04-12T20:19:34.865Z,1.00
2023-04-12T20:22:03.451Z,1.00
2023-04-12T20:24:34.585Z,1.00
2023-04-12T20:27:03.963Z,1.00
2023-04-12T20:29:36.202Z,99.90
2023-04-12T20:32:04.584Z,99.90
2023-04-12T20:34:33.101Z,1.00
2023-04-12T20:37:01.374Z,99.90
2023-04-12T20:39:30.233Z,1.00
2023-04-12T20:42:01.366Z,1.00
2023-04-12T20:44:29.753Z,1.00
2023-04-12T20:46:59.758Z,1.00
2023-04-12T20:49:28.165Z,1.00
2023-04-12T20:51:57.268Z,99.90
2023-04-12T20:54:26.521Z,1.00
2023-04-12T20:56:55.200Z,1.00
2023-04-12T20:59:23.990Z,1.00
2023-04-12T21:01:53.276Z,1.00
2023-04-12T21:04:23.041Z,1.00
2023-04-12T21:06:55.466Z,1.00
2023-04-12T21:09:25.472Z,6.00
2023-04-12T21:11:54.668Z,99.90
2023-04-12T21:14:22.859Z,99.90
2023-04-12T21:16:51.131Z,1.00
2023-04-12T21:19:19.650Z,1.00
2023-04-12T21:21:51.014Z,1.00
2023-04-12T21:24:19.849Z,1.00
2023-04-12T21:26:58.305Z,99.90
2023-04-12T21:29:26.596Z,99.90
2023-04-12T21:31:54.851Z,1.00
2023-04-12T21:34:23.248Z,99.90
2023-04-12T21:36:54.341Z,1.00
2023-04-12T21:39:22.877Z,31.50
2023-04-12T21:41:51.222Z,99.90
2023-04-12T21:44:19.998Z,1.00
2023-04-12T21:46:48.259Z,1.00
2023-04-12T21:49:16.439Z,1.00
2023-04-12T21:51:46.160Z,99.90
2023-04-12T21:54:16.126Z,99.90
2023-04-12T21:56:46.373Z,1.00
2023-04-12T21:59:14.646Z,1.00
2023-04-12T22:01:42.936Z,1.00
2023-04-12T22:04:11.424Z,1.00
2023-04-12T22:06:39.790Z,99.90
2023-04-12T22:09:08.723Z,99.90
2023-04-12T22:11:38.250Z,99.90
2023-04-12T22:14:06.819Z,99.90
2023-04-12T22:16:36.237Z,99.90
2023-04-12T22:19:04.468Z,99.90
2023-04-12T22:21:33.505Z,1.00
2023-04-12T22:24:01.943Z,1.00
2023-04-12T22:26:31.491Z,1.00
2023-04-12T22:29:01.148Z,1.00
2023-04-12T22:31:29.443Z,1.00
2023-04-12T22:33:57.974Z,1.00
2023-04-12T22:36:29.299Z,34.20
2023-04-12T22:38:58.075Z,99.90
2023-04-12T22:41:28.416Z,99.90
2023-04-12T22:44:01.505Z,99.90
2023-04-12T22:46:33.053Z,1.00
2023-04-12T22:49:01.609Z,1.00
2023-04-12T22:51:29.808Z,1.00
2023-04-12T22:53:58.649Z,22.60
2023-04-12T22:56:29.225Z,73.60
2023-04-12T22:58:57.859Z,99.90
2023-04-12T23:01:26.247Z,1.00
2023-04-12T23:03:56.505Z,1.00
2023-04-12T23:06:27.772Z,9.90
2023-04-12T23:09:00.115Z,89.40
2023-04-12T23:11:29.125Z,99.90
2023-04-12T23:13:58.274Z,99.90
2023-04-12T23:16:26.772Z,99.90
2023-04-12T23:18:56.565Z,99.90
2023-04-12T23:21:24.857Z,99.90
2023-04-12T23:23:56.419Z,99.90
2023-04-12T23:26:25.712Z,99.90
2023-04-12T23:28:53.989Z,99.90
2023-04-12T23:31:22.426Z,99.90
2023-04-12T23:33:51.980Z,99.90
2023-04-12T23:36:22.031Z,99.90
2023-04-12T23:38:55.491Z,99.90
2023-04-12T23:41:24.577Z,99.90
2023-04-12T23:43:54.178Z,99.90
2023-04-12T23:46:22.611Z,99.90
2023-04-12T23:48:50.949Z,99.90
2023-04-12T23:51:19.165Z,99.90
2023-04-12T23:53:48.812Z,1.00
2023-04-12T23:56:17.159Z,1.00
2023-04-12T23:58:45.691Z,1.00
